sensor_id;sensor_type;location;lat;lon;timestamp;P1;durP1;ratioP1;P2;durP2;ratioP2
63276;SDS011;49403;51.046;13.780;2022-08-05T00:00:02;6.88;;;4.75;;
63276;SDS011;49403;51.046;13.780;2022-08-05T00:00:33;8.38;;;4.95;;
63276;SDS011;49403;51.046;13.780;2022-08-05T00:01:37;8.60;;;4.88;;
63276;SDS011;49403;51.046;13.780;2022-08-05T00:02:02;11.10;;;4.80;;
63276;SDS011;49403;51.046;13.780;2022-08-05T00:02:33;16.40;;;5.00;;
63276;SDS011;49403;51.046;13.780;2022-08-05T00:03:04;5.20;;;4.70;;
63276;SDS011;49403;51.046;13.780;2022-08-05T00:03:35;7.07;;;5.05;;
63276;SDS011;49403;51.046;13.780;2022-08-05T00:04:06;8.48;;;5.10;;
63276;SDS011;49403;51.046;13.780;2022-08-05T00:04:37;6.70;;;4.90;;
63276;SDS011;49403;51.046;13.780;2022-08-05T00:05:08;11.57;;;4.75;;
63276;SDS011;49403;51.046;13.780;2022-08-05T00:05:38;8.95;;;4.90;;
63276;SDS011;49403;51.046;13.780;2022-08-05T00:06:12;9.70;;;4.90;;
63276;SDS011;49403;51.046;13.780;2022-08-05T00:06:43;5.93;;;4.75;;
63276;SDS011;49403;51.046;13.780;2022-08-05T00:07:14;7.60;;;4.80;;
63276;SDS011;49403;51.046;13.780;2022-08-05T00:07:45;5.70;;;4.90;;
63276;SDS011;49403;51.046;13.780;2022-08-05T00:08:16;6.80;;;4.97;;
63276;SDS011;49403;51.046;13.780;2022-08-05T00:08:48;6.63;;;5.20;;
63276;SDS011;49403;51.046;13.780;2022-08-05T00:09:19;8.05;;;5.00;;
63276;SDS011;49403;51.046;13.780;2022-08-05T00:09:50;5.72;;;4.60;;
63276;SDS011;49403;51.046;13.780;2022-08-05T00:10:21;10.85;;;4.80;;
63276;SDS011;49403;51.046;13.780;2022-08-05T00:10:52;5.43;;;4.70;;
63276;SDS011;49403;51.046;13.780;2022-08-05T00:11:23;7.47;;;4.70;;
63276;SDS011;49403;51.046;13.780;2022-08-05T00:11:53;6.20;;;5.00;;
63276;SDS011;49403;51.046;13.780;2022-08-05T00:12:24;8.68;;;4.90;;
63276;SDS011;49403;51.046;13.780;2022-08-05T00:12:55;10.50;;;4.78;;
63276;SDS011;49403;51.046;13.780;2022-08-05T00:13:29;7.53;;;5.00;;
63276;SDS011;49403;51.046;13.780;2022-08-05T00:14:01;8.57;;;4.90;;
63276;SDS011;49403;51.046;13.780;2022-08-05T00:14:33;5.55;;;4.80;;
63276;SDS011;49403;51.046;13.780;2022-08-05T00:15:04;5.35;;;4.60;;
63276;SDS011;49403;51.046;13.780;2022-08-05T00:15:36;7.65;;;4.88;;
63276;SDS011;49403;51.046;13.780;2022-08-05T00:16:11;7.30;;;4.82;;
63276;SDS011;49403;51.046;13.780;2022-08-05T00:16:43;6.32;;;4.45;;
63276;SDS011;49403;51.046;13.780;2022-08-05T00:17:14;6.60;;;4.78;;
63276;SDS011;49403;51.046;13.780;2022-08-05T00:17:45;5.10;;;4.60;;
63276;SDS011;49403;51.046;13.780;2022-08-05T00:18:16;8.05;;;4.88;;
63276;SDS011;49403;51.046;13.780;2022-08-05T00:18:47;7.93;;;4.55;;
63276;SDS011;49403;51.046;13.780;2022-08-05T00:19:21;8.25;;;5.00;;
63276;SDS011;49403;51.046;13.780;2022-08-05T00:19:52;5.47;;;4.70;;
63276;SDS011;49403;51.046;13.780;2022-08-05T00:20:23;7.88;;;4.93;;
63276;SDS011;49403;51.046;13.780;2022-08-05T00:20:54;10.90;;;4.80;;
63276;SDS011;49403;51.046;13.780;2022-08-05T00:21:25;6.25;;;5.07;;
63276;SDS011;49403;51.046;13.780;2022-08-05T00:21:56;6.93;;;4.50;;
63276;SDS011;49403;51.046;13.780;2022-08-05T00:22:27;8.45;;;4.75;;
63276;SDS011;49403;51.046;13.780;2022-08-05T00:22:58;5.47;;;4.85;;
63276;SDS011;49403;51.046;13.780;2022-08-05T00:23:29;7.25;;;4.70;;
63276;SDS011;49403;51.046;13.780;2022-08-05T00:24:00;7.93;;;4.50;;
63276;SDS011;49403;51.046;13.780;2022-08-05T00:24:31;9.25;;;5.30;;
63276;SDS011;49403;51.046;13.780;2022-08-05T00:25:02;8.02;;;4.60;;
63276;SDS011;49403;51.046;13.780;2022-08-05T00:25:33;8.95;;;4.80;;
63276;SDS011;49403;51.046;13.780;2022-08-05T00:26:04;6.50;;;4.95;;
63276;SDS011;49403;51.046;13.780;2022-08-05T00:26:37;6.43;;;5.18;;
63276;SDS011;49403;51.046;13.780;2022-08-05T00:27:08;6.60;;;4.70;;
63276;SDS011;49403;51.046;13.780;2022-08-05T00:27:39;5.20;;;4.63;;
63276;SDS011;49403;51.046;13.780;2022-08-05T00:28:10;5.28;;;4.75;;
63276;SDS011;49403;51.046;13.780;2022-08-05T00:28:41;8.32;;;4.90;;
63276;SDS011;49403;51.046;13.780;2022-08-05T00:29:12;5.75;;;4.80;;
63276;SDS011;49403;51.046;13.780;2022-08-05T00:29:43;5.60;;;4.72;;
63276;SDS011;49403;51.046;13.780;2022-08-05T00:30:14;6.85;;;4.82;;
63276;SDS011;49403;51.046;13.780;2022-08-05T00:30:45;5.00;;;4.50;;
63276;SDS011;49403;51.046;13.780;2022-08-05T00:31:16;5.55;;;4.70;;
63276;SDS011;49403;51.046;13.780;2022-08-05T00:31:48;9.38;;;4.90;;
63276;SDS011;49403;51.046;13.780;2022-08-05T00:32:19;8.27;;;4.90;;
63276;SDS011;49403;51.046;13.780;2022-08-05T00:32:50;5.55;;;4.80;;
63276;SDS011;49403;51.046;13.780;2022-08-05T00:33:21;5.15;;;4.65;;
63276;SDS011;49403;51.046;13.780;2022-08-05T00:33:51;9.07;;;4.93;;
63276;SDS011;49403;51.046;13.780;2022-08-05T00:34:22;5.65;;;4.68;;
63276;SDS011;49403;51.046;13.780;2022-08-05T00:34:53;5.55;;;5.00;;
63276;SDS011;49403;51.046;13.780;2022-08-05T00:35:24;8.80;;;4.63;;
63276;SDS011;49403;51.046;13.780;2022-08-05T00:35:55;6.97;;;4.90;;
63276;SDS011;49403;51.046;13.780;2022-08-05T00:36:26;13.15;;;5.20;;
63276;SDS011;49403;51.046;13.780;2022-08-05T00:36:57;5.65;;;4.85;;
63276;SDS011;49403;51.046;13.780;2022-08-05T00:37:28;7.13;;;4.55;;
63276;SDS011;49403;51.046;13.780;2022-08-05T00:37:59;9.23;;;5.00;;
63276;SDS011;49403;51.046;13.780;2022-08-05T00:38:31;6.80;;;5.00;;
63276;SDS011;49403;51.046;13.780;2022-08-05T00:39:02;5.95;;;4.65;;
63276;SDS011;49403;51.046;13.780;2022-08-05T00:39:33;6.00;;;4.82;;
63276;SDS011;49403;51.046;13.780;2022-08-05T00:40:04;10.48;;;4.78;;
63276;SDS011;49403;51.046;13.780;2022-08-05T00:40:44;6.15;;;4.80;;
63276;SDS011;49403;51.046;13.780;2022-08-05T00:41:27;8.07;;;4.80;;
63276;SDS011;49403;51.046;13.780;2022-08-05T00:41:59;8.43;;;4.45;;
63276;SDS011;49403;51.046;13.780;2022-08-05T00:43:02;7.25;;;5.07;;
63276;SDS011;49403;51.046;13.780;2022-08-05T00:43:34;7.65;;;4.72;;
63276;SDS011;49403;51.046;13.780;2022-08-05T00:44:06;5.25;;;4.75;;
63276;SDS011;49403;51.046;13.780;2022-08-05T00:44:36;6.97;;;4.65;;
63276;SDS011;49403;51.046;13.780;2022-08-05T00:45:07;5.22;;;4.57;;
63276;SDS011;49403;51.046;13.780;2022-08-05T00:45:39;13.13;;;4.82;;
63276;SDS011;49403;51.046;13.780;2022-08-05T00:46:10;6.30;;;4.78;;
63276;SDS011;49403;51.046;13.780;2022-08-05T00:46:41;5.78;;;4.88;;
63276;SDS011;49403;51.046;13.780;2022-08-05T00:47:12;5.45;;;4.72;;
63276;SDS011;49403;51.046;13.780;2022-08-05T00:47:43;8.63;;;4.85;;
63276;SDS011;49403;51.046;13.780;2022-08-05T00:48:15;10.07;;;4.78;;
63276;SDS011;49403;51.046;13.780;2022-08-05T00:48:48;7.20;;;4.70;;
63276;SDS011;49403;51.046;13.780;2022-08-05T00:49:19;7.35;;;4.60;;
63276;SDS011;49403;51.046;13.780;2022-08-05T00:49:50;7.90;;;4.82;;
63276;SDS011;49403;51.046;13.780;2022-08-05T00:50:21;9.07;;;4.75;;
63276;SDS011;49403;51.046;13.780;2022-08-05T00:50:52;5.40;;;4.70;;
63276;SDS011;49403;51.046;13.780;2022-08-05T00:51:23;4.97;;;4.47;;
63276;SDS011;49403;51.046;13.780;2022-08-05T00:51:54;6.15;;;4.65;;
63276;SDS011;49403;51.046;13.780;2022-08-05T00:52:25;5.38;;;4.80;;
63276;SDS011;49403;51.046;13.780;2022-08-05T00:52:56;9.82;;;4.82;;
63276;SDS011;49403;51.046;13.780;2022-08-05T00:53:27;10.65;;;4.88;;
63276;SDS011;49403;51.046;13.780;2022-08-05T00:53:58;8.05;;;5.15;;
63276;SDS011;49403;51.046;13.780;2022-08-05T00:54:29;5.30;;;4.80;;
63276;SDS011;49403;51.046;13.780;2022-08-05T00:55:00;7.18;;;4.70;;
63276;SDS011;49403;51.046;13.780;2022-08-05T00:55:31;6.57;;;4.63;;
63276;SDS011;49403;51.046;13.780;2022-08-05T00:56:02;9.18;;;4.93;;
63276;SDS011;49403;51.046;13.780;2022-08-05T00:56:33;5.53;;;4.85;;
63276;SDS011;49403;51.046;13.780;2022-08-05T00:57:04;5.40;;;4.50;;
63276;SDS011;49403;51.046;13.780;2022-08-05T00:57:35;7.80;;;4.63;;
63276;SDS011;49403;51.046;13.780;2022-08-05T00:58:06;5.97;;;4.82;;
63276;SDS011;49403;51.046;13.780;2022-08-05T00:58:37;5.72;;;5.20;;
63276;SDS011;49403;51.046;13.780;2022-08-05T00:59:08;6.90;;;4.70;;
63276;SDS011;49403;51.046;13.780;2022-08-05T00:59:39;5.75;;;4.80;;
63276;SDS011;49403;51.046;13.780;2022-08-05T01:00:10;9.52;;;4.80;;
63276;SDS011;49403;51.046;13.780;2022-08-05T01:00:42;7.00;;;4.80;;
63276;SDS011;49403;51.046;13.780;2022-08-05T01:01:14;6.32;;;5.10;;
63276;SDS011;49403;51.046;13.780;2022-08-05T01:01:45;8.77;;;4.93;;
63276;SDS011;49403;51.046;13.780;2022-08-05T01:02:16;5.38;;;4.80;;
63276;SDS011;49403;51.046;13.780;2022-08-05T01:02:47;6.50;;;4.80;;
63276;SDS011;49403;51.046;13.780;2022-08-05T01:03:18;7.28;;;5.00;;
63276;SDS011;49403;51.046;13.780;2022-08-05T01:03:48;10.23;;;4.93;;
63276;SDS011;49403;51.046;13.780;2022-08-05T01:04:20;6.15;;;4.97;;
63276;SDS011;49403;51.046;13.780;2022-08-05T01:04:51;8.13;;;4.68;;
63276;SDS011;49403;51.046;13.780;2022-08-05T01:05:23;7.03;;;4.68;;
63276;SDS011;49403;51.046;13.780;2022-08-05T01:05:54;9.63;;;5.25;;
63276;SDS011;49403;51.046;13.780;2022-08-05T01:06:25;5.32;;;4.80;;
63276;SDS011;49403;51.046;13.780;2022-08-05T01:06:56;6.93;;;4.70;;
63276;SDS011;49403;51.046;13.780;2022-08-05T01:07:27;6.15;;;4.80;;
63276;SDS011;49403;51.046;13.780;2022-08-05T01:07:58;7.53;;;5.03;;
63276;SDS011;49403;51.046;13.780;2022-08-05T01:08:29;5.70;;;4.50;;
63276;SDS011;49403;51.046;13.780;2022-08-05T01:09:00;9.77;;;4.80;;
63276;SDS011;49403;51.046;13.780;2022-08-05T01:09:31;7.65;;;4.57;;
63276;SDS011;49403;51.046;13.780;2022-08-05T01:10:02;6.97;;;4.80;;
63276;SDS011;49403;51.046;13.780;2022-08-05T01:10:47;9.90;;;4.78;;
63276;SDS011;49403;51.046;13.780;2022-08-05T01:11:27;5.90;;;4.88;;
63276;SDS011;49403;51.046;13.780;2022-08-05T01:12:03;10.15;;;4.80;;
63276;SDS011;49403;51.046;13.780;2022-08-05T01:12:38;5.93;;;5.10;;
63276;SDS011;49403;51.046;13.780;2022-08-05T01:13:20;6.10;;;4.82;;
63276;SDS011;49403;51.046;13.780;2022-08-05T01:15:10;6.88;;;5.10;;
63276;SDS011;49403;51.046;13.780;2022-08-05T01:15:44;6.95;;;4.70;;
63276;SDS011;49403;51.046;13.780;2022-08-05T01:16:20;6.88;;;4.82;;
63276;SDS011;49403;51.046;13.780;2022-08-05T01:17:06;9.10;;;5.28;;
63276;SDS011;49403;51.046;13.780;2022-08-05T01:17:51;5.97;;;4.82;;
63276;SDS011;49403;51.046;13.780;2022-08-05T01:18:28;7.22;;;4.80;;
63276;SDS011;49403;51.046;13.780;2022-08-05T01:19:05;6.85;;;4.80;;
63276;SDS011;49403;51.046;13.780;2022-08-05T01:19:49;7.20;;;4.68;;
63276;SDS011;49403;51.046;13.780;2022-08-05T01:21:11;7.78;;;5.10;;
63276;SDS011;49403;51.046;13.780;2022-08-05T01:22:01;7.25;;;5.05;;
63276;SDS011;49403;51.046;13.780;2022-08-05T01:22:42;8.32;;;5.30;;
63276;SDS011;49403;51.046;13.780;2022-08-05T01:23:56;5.60;;;4.85;;
63276;SDS011;49403;51.046;13.780;2022-08-05T01:27:25;9.07;;;5.10;;
63276;SDS011;49403;51.046;13.780;2022-08-05T01:28:14;8.73;;;5.13;;
63276;SDS011;49403;51.046;13.780;2022-08-05T01:29:00;8.48;;;4.85;;
63276;SDS011;49403;51.046;13.780;2022-08-05T01:29:39;15.93;;;4.85;;
63276;SDS011;49403;51.046;13.780;2022-08-05T01:30:14;6.22;;;4.90;;
63276;SDS011;49403;51.046;13.780;2022-08-05T01:30:50;8.63;;;4.85;;
63276;SDS011;49403;51.046;13.780;2022-08-05T01:32:03;6.55;;;5.00;;
63276;SDS011;49403;51.046;13.780;2022-08-05T01:32:39;5.68;;;5.07;;
63276;SDS011;49403;51.046;13.780;2022-08-05T01:33:13;7.35;;;4.95;;
63276;SDS011;49403;51.046;13.780;2022-08-05T01:33:50;8.23;;;5.47;;
63276;SDS011;49403;51.046;13.780;2022-08-05T01:34:53;7.75;;;5.22;;
63276;SDS011;49403;51.046;13.780;2022-08-05T01:35:29;9.90;;;5.38;;
63276;SDS011;49403;51.046;13.780;2022-08-05T01:36:05;7.88;;;5.15;;
63276;SDS011;49403;51.046;13.780;2022-08-05T01:36:48;10.60;;;5.32;;
63276;SDS011;49403;51.046;13.780;2022-08-05T01:37:39;11.15;;;5.00;;
63276;SDS011;49403;51.046;13.780;2022-08-05T01:38:19;5.60;;;5.00;;
63276;SDS011;49403;51.046;13.780;2022-08-05T01:38:52;7.80;;;4.85;;
63276;SDS011;49403;51.046;13.780;2022-08-05T01:39:25;7.00;;;5.20;;
63276;SDS011;49403;51.046;13.780;2022-08-05T01:39:57;7.22;;;5.38;;
63276;SDS011;49403;51.046;13.780;2022-08-05T01:40:30;8.65;;;5.60;;
63276;SDS011;49403;51.046;13.780;2022-08-05T01:41:03;5.90;;;5.00;;
63276;SDS011;49403;51.046;13.780;2022-08-05T01:41:35;6.07;;;5.40;;
63276;SDS011;49403;51.046;13.780;2022-08-05T01:42:08;7.30;;;5.15;;
63276;SDS011;49403;51.046;13.780;2022-08-05T01:42:43;7.05;;;5.00;;
63276;SDS011;49403;51.046;13.780;2022-08-05T01:43:16;9.38;;;5.20;;
63276;SDS011;49403;51.046;13.780;2022-08-05T01:43:49;6.18;;;5.10;;
63276;SDS011;49403;51.046;13.780;2022-08-05T01:44:21;8.32;;;5.35;;
63276;SDS011;49403;51.046;13.780;2022-08-05T01:44:55;12.18;;;5.32;;
63276;SDS011;49403;51.046;13.780;2022-08-05T01:45:30;5.78;;;4.90;;
63276;SDS011;49403;51.046;13.780;2022-08-05T01:46:02;7.38;;;4.90;;
63276;SDS011;49403;51.046;13.780;2022-08-05T01:46:33;11.90;;;5.30;;
63276;SDS011;49403;51.046;13.780;2022-08-05T01:47:05;7.57;;;5.40;;
63276;SDS011;49403;51.046;13.780;2022-08-05T01:47:38;8.65;;;5.25;;
63276;SDS011;49403;51.046;13.780;2022-08-05T01:48:09;9.75;;;5.15;;
63276;SDS011;49403;51.046;13.780;2022-08-05T01:48:42;11.55;;;5.20;;
63276;SDS011;49403;51.046;13.780;2022-08-05T01:49:17;8.18;;;5.28;;
63276;SDS011;49403;51.046;13.780;2022-08-05T01:49:51;7.38;;;5.30;;
63276;SDS011;49403;51.046;13.780;2022-08-05T01:50:24;7.45;;;5.35;;
63276;SDS011;49403;51.046;13.780;2022-08-05T01:50:57;6.07;;;5.38;;
63276;SDS011;49403;51.046;13.780;2022-08-05T01:51:30;8.60;;;5.00;;
63276;SDS011;49403;51.046;13.780;2022-08-05T01:52:04;8.75;;;5.10;;
63276;SDS011;49403;51.046;13.780;2022-08-05T01:52:36;8.27;;;5.20;;
63276;SDS011;49403;51.046;13.780;2022-08-05T01:53:10;6.28;;;5.18;;
63276;SDS011;49403;51.046;13.780;2022-08-05T01:53:45;8.52;;;6.00;;
63276;SDS011;49403;51.046;13.780;2022-08-05T01:54:18;9.48;;;5.30;;
63276;SDS011;49403;51.046;13.780;2022-08-05T01:54:54;9.43;;;5.32;;
63276;SDS011;49403;51.046;13.780;2022-08-05T01:55:28;6.05;;;4.88;;
63276;SDS011;49403;51.046;13.780;2022-08-05T01:56:01;7.90;;;5.25;;
63276;SDS011;49403;51.046;13.780;2022-08-05T01:56:38;7.72;;;5.30;;
63276;SDS011;49403;51.046;13.780;2022-08-05T01:57:13;6.57;;;5.22;;
63276;SDS011;49403;51.046;13.780;2022-08-05T01:57:52;6.20;;;5.10;;
63276;SDS011;49403;51.046;13.780;2022-08-05T01:58:25;7.78;;;5.40;;
63276;SDS011;49403;51.046;13.780;2022-08-05T01:58:58;9.18;;;5.55;;
63276;SDS011;49403;51.046;13.780;2022-08-05T01:59:33;8.18;;;5.38;;
63276;SDS011;49403;51.046;13.780;2022-08-05T02:00:07;15.55;;;5.70;;
63276;SDS011;49403;51.046;13.780;2022-08-05T02:00:41;8.77;;;5.30;;
63276;SDS011;49403;51.046;13.780;2022-08-05T02:01:19;6.93;;;5.45;;
63276;SDS011;49403;51.046;13.780;2022-08-05T02:01:51;10.10;;;5.30;;
63276;SDS011;49403;51.046;13.780;2022-08-05T02:02:25;13.38;;;5.18;;
63276;SDS011;49403;51.046;13.780;2022-08-05T02:03:12;7.85;;;5.43;;
63276;SDS011;49403;51.046;13.780;2022-08-05T02:03:50;7.20;;;5.35;;
63276;SDS011;49403;51.046;13.780;2022-08-05T02:04:25;8.20;;;5.43;;
63276;SDS011;49403;51.046;13.780;2022-08-05T02:04:58;7.32;;;5.22;;
63276;SDS011;49403;51.046;13.780;2022-08-05T02:05:33;7.72;;;5.10;;
63276;SDS011;49403;51.046;13.780;2022-08-05T02:06:07;7.05;;;5.40;;
63276;SDS011;49403;51.046;13.780;2022-08-05T02:06:39;7.07;;;5.55;;
63276;SDS011;49403;51.046;13.780;2022-08-05T02:07:10;9.48;;;5.32;;
63276;SDS011;49403;51.046;13.780;2022-08-05T02:07:42;10.70;;;5.35;;
63276;SDS011;49403;51.046;13.780;2022-08-05T02:08:13;8.65;;;5.35;;
63276;SDS011;49403;51.046;13.780;2022-08-05T02:08:44;6.25;;;5.03;;
63276;SDS011;49403;51.046;13.780;2022-08-05T02:09:16;6.57;;;5.18;;
63276;SDS011;49403;51.046;13.780;2022-08-05T02:09:47;7.97;;;5.70;;
63276;SDS011;49403;51.046;13.780;2022-08-05T02:10:18;9.85;;;5.50;;
63276;SDS011;49403;51.046;13.780;2022-08-05T02:10:50;6.32;;;5.32;;
63276;SDS011;49403;51.046;13.780;2022-08-05T02:11:25;6.32;;;5.50;;
63276;SDS011;49403;51.046;13.780;2022-08-05T02:12:04;6.38;;;5.38;;
63276;SDS011;49403;51.046;13.780;2022-08-05T02:12:51;6.85;;;5.18;;
63276;SDS011;49403;51.046;13.780;2022-08-05T02:13:26;6.07;;;5.47;;
63276;SDS011;49403;51.046;13.780;2022-08-05T02:14:12;7.25;;;6.50;;
63276;SDS011;49403;51.046;13.780;2022-08-05T02:14:59;8.10;;;5.60;;
63276;SDS011;49403;51.046;13.780;2022-08-05T02:15:57;7.40;;;5.40;;
63276;SDS011;49403;51.046;13.780;2022-08-05T02:16:43;5.85;;;5.05;;
63276;SDS011;49403;51.046;13.780;2022-08-05T02:17:28;8.68;;;6.05;;
63276;SDS011;49403;51.046;13.780;2022-08-05T02:18:12;12.52;;;9.43;;
63276;SDS011;49403;51.046;13.780;2022-08-05T02:18:55;12.73;;;5.80;;
63276;SDS011;49403;51.046;13.780;2022-08-05T02:19:32;7.47;;;5.63;;
63276;SDS011;49403;51.046;13.780;2022-08-05T02:20:06;8.45;;;5.40;;
63276;SDS011;49403;51.046;13.780;2022-08-05T02:20:45;9.85;;;5.35;;
63276;SDS011;49403;51.046;13.780;2022-08-05T02:21:21;10.00;;;5.25;;
63276;SDS011;49403;51.046;13.780;2022-08-05T02:21:58;8.32;;;5.82;;
63276;SDS011;49403;51.046;13.780;2022-08-05T02:22:38;5.88;;;5.28;;
63276;SDS011;49403;51.046;13.780;2022-08-05T02:23:16;7.40;;;5.60;;
63276;SDS011;49403;51.046;13.780;2022-08-05T02:23:54;9.10;;;5.28;;
63276;SDS011;49403;51.046;13.780;2022-08-05T02:24:31;7.25;;;5.30;;
63276;SDS011;49403;51.046;13.780;2022-08-05T02:25:16;11.63;;;5.22;;
63276;SDS011;49403;51.046;13.780;2022-08-05T02:25:51;6.75;;;5.60;;
63276;SDS011;49403;51.046;13.780;2022-08-05T02:26:27;10.07;;;5.40;;
63276;SDS011;49403;51.046;13.780;2022-08-05T02:27:07;9.93;;;5.95;;
63276;SDS011;49403;51.046;13.780;2022-08-05T02:27:40;7.53;;;5.20;;
63276;SDS011;49403;51.046;13.780;2022-08-05T02:28:12;6.47;;;5.47;;
63276;SDS011;49403;51.046;13.780;2022-08-05T02:28:44;6.57;;;5.47;;
63276;SDS011;49403;51.046;13.780;2022-08-05T02:29:19;8.32;;;5.45;;
63276;SDS011;49403;51.046;13.780;2022-08-05T02:29:53;7.20;;;5.28;;
63276;SDS011;49403;51.046;13.780;2022-08-05T02:30:29;8.07;;;5.00;;
63276;SDS011;49403;51.046;13.780;2022-08-05T02:31:05;8.45;;;5.13;;
63276;SDS011;49403;51.046;13.780;2022-08-05T02:31:38;8.73;;;5.70;;
63276;SDS011;49403;51.046;13.780;2022-08-05T02:32:10;6.82;;;5.28;;
63276;SDS011;49403;51.046;13.780;2022-08-05T02:32:45;8.25;;;5.47;;
63276;SDS011;49403;51.046;13.780;2022-08-05T02:33:20;5.90;;;5.30;;
63276;SDS011;49403;51.046;13.780;2022-08-05T02:33:57;8.23;;;5.63;;
63276;SDS011;49403;51.046;13.780;2022-08-05T02:34:30;8.52;;;6.15;;
63276;SDS011;49403;51.046;13.780;2022-08-05T02:35:05;7.97;;;5.60;;
63276;SDS011;49403;51.046;13.780;2022-08-05T02:35:40;7.90;;;5.75;;
63276;SDS011;49403;51.046;13.780;2022-08-05T02:36:13;9.05;;;6.00;;
63276;SDS011;49403;51.046;13.780;2022-08-05T02:36:49;8.38;;;5.32;;
63276;SDS011;49403;51.046;13.780;2022-08-05T02:37:23;7.25;;;5.35;;
63276;SDS011;49403;51.046;13.780;2022-08-05T02:37:54;9.82;;;6.45;;
63276;SDS011;49403;51.046;13.780;2022-08-05T02:38:27;10.95;;;6.15;;
63276;SDS011;49403;51.046;13.780;2022-08-05T02:38:59;8.65;;;6.75;;
63276;SDS011;49403;51.046;13.780;2022-08-05T02:39:34;8.07;;;5.50;;
63276;SDS011;49403;51.046;13.780;2022-08-05T02:40:07;9.48;;;5.63;;
63276;SDS011;49403;51.046;13.780;2022-08-05T02:40:40;10.80;;;5.68;;
63276;SDS011;49403;51.046;13.780;2022-08-05T02:41:12;7.25;;;5.68;;
63276;SDS011;49403;51.046;13.780;2022-08-05T02:41:46;7.85;;;5.50;;
63276;SDS011;49403;51.046;13.780;2022-08-05T02:42:18;7.25;;;5.53;;
63276;SDS011;49403;51.046;13.780;2022-08-05T02:42:50;6.40;;;5.60;;
63276;SDS011;49403;51.046;13.780;2022-08-05T02:43:23;11.98;;;5.53;;
63276;SDS011;49403;51.046;13.780;2022-08-05T02:43:55;6.78;;;5.55;;
63276;SDS011;49403;51.046;13.780;2022-08-05T02:44:31;9.82;;;5.40;;
63276;SDS011;49403;51.046;13.780;2022-08-05T02:45:05;10.90;;;5.60;;
63276;SDS011;49403;51.046;13.780;2022-08-05T02:45:39;7.10;;;5.45;;
63276;SDS011;49403;51.046;13.780;2022-08-05T02:46:15;9.20;;;5.40;;
63276;SDS011;49403;51.046;13.780;2022-08-05T02:46:47;7.25;;;5.60;;
63276;SDS011;49403;51.046;13.780;2022-08-05T02:47:18;8.85;;;5.60;;
63276;SDS011;49403;51.046;13.780;2022-08-05T02:47:50;7.13;;;5.63;;
63276;SDS011;49403;51.046;13.780;2022-08-05T02:48:24;8.63;;;5.57;;
63276;SDS011;49403;51.046;13.780;2022-08-05T02:48:56;13.77;;;5.80;;
63276;SDS011;49403;51.046;13.780;2022-08-05T02:49:36;7.10;;;5.40;;
63276;SDS011;49403;51.046;13.780;2022-08-05T02:50:10;7.97;;;5.40;;
63276;SDS011;49403;51.046;13.780;2022-08-05T02:50:45;8.90;;;5.70;;
63276;SDS011;49403;51.046;13.780;2022-08-05T02:51:19;12.63;;;5.82;;
63276;SDS011;49403;51.046;13.780;2022-08-05T02:51:52;12.95;;;5.68;;
63276;SDS011;49403;51.046;13.780;2022-08-05T02:52:25;9.82;;;5.70;;
63276;SDS011;49403;51.046;13.780;2022-08-05T02:52:56;10.98;;;5.38;;
63276;SDS011;49403;51.046;13.780;2022-08-05T02:53:29;8.25;;;5.55;;
63276;SDS011;49403;51.046;13.780;2022-08-05T02:54:01;8.65;;;5.35;;
63276;SDS011;49403;51.046;13.780;2022-08-05T02:54:33;8.50;;;5.72;;
63276;SDS011;49403;51.046;13.780;2022-08-05T02:55:06;8.18;;;5.53;;
63276;SDS011;49403;51.046;13.780;2022-08-05T02:55:38;9.35;;;5.43;;
63276;SDS011;49403;51.046;13.780;2022-08-05T02:56:10;10.85;;;5.85;;
63276;SDS011;49403;51.046;13.780;2022-08-05T02:56:42;7.10;;;5.60;;
63276;SDS011;49403;51.046;13.780;2022-08-05T02:57:14;14.15;;;6.13;;
63276;SDS011;49403;51.046;13.780;2022-08-05T02:57:47;10.48;;;7.07;;
63276;SDS011;49403;51.046;13.780;2022-08-05T02:58:20;10.32;;;5.65;;
63276;SDS011;49403;51.046;13.780;2022-08-05T02:58:51;8.48;;;5.50;;
63276;SDS011;49403;51.046;13.780;2022-08-05T02:59:24;7.43;;;5.47;;
63276;SDS011;49403;51.046;13.780;2022-08-05T02:59:57;7.80;;;5.60;;
63276;SDS011;49403;51.046;13.780;2022-08-05T03:00:28;10.13;;;5.50;;
63276;SDS011;49403;51.046;13.780;2022-08-05T03:01:00;7.63;;;5.35;;
63276;SDS011;49403;51.046;13.780;2022-08-05T03:01:32;5.75;;;5.15;;
63276;SDS011;49403;51.046;13.780;2022-08-05T03:02:09;7.72;;;5.20;;
63276;SDS011;49403;51.046;13.780;2022-08-05T03:02:43;9.57;;;5.55;;
63276;SDS011;49403;51.046;13.780;2022-08-05T03:03:17;10.90;;;5.32;;
63276;SDS011;49403;51.046;13.780;2022-08-05T03:03:51;9.80;;;5.43;;
63276;SDS011;49403;51.046;13.780;2022-08-05T03:04:23;9.43;;;5.40;;
63276;SDS011;49403;51.046;13.780;2022-08-05T03:04:56;10.05;;;5.60;;
63276;SDS011;49403;51.046;13.780;2022-08-05T03:05:28;7.35;;;5.35;;
63276;SDS011;49403;51.046;13.780;2022-08-05T03:05:59;9.80;;;5.63;;
63276;SDS011;49403;51.046;13.780;2022-08-05T03:06:31;8.40;;;5.43;;
63276;SDS011;49403;51.046;13.780;2022-08-05T03:07:03;12.85;;;5.45;;
63276;SDS011;49403;51.046;13.780;2022-08-05T03:07:36;7.65;;;5.38;;
63276;SDS011;49403;51.046;13.780;2022-08-05T03:08:09;7.00;;;5.43;;
63276;SDS011;49403;51.046;13.780;2022-08-05T03:08:41;23.52;;;5.68;;
63276;SDS011;49403;51.046;13.780;2022-08-05T03:09:13;7.47;;;5.35;;
63276;SDS011;49403;51.046;13.780;2022-08-05T03:09:44;15.70;;;5.93;;
63276;SDS011;49403;51.046;13.780;2022-08-05T03:10:15;5.78;;;5.15;;
63276;SDS011;49403;51.046;13.780;2022-08-05T03:10:46;12.30;;;5.88;;
63276;SDS011;49403;51.046;13.780;2022-08-05T03:11:21;9.30;;;5.60;;
63276;SDS011;49403;51.046;13.780;2022-08-05T03:11:54;7.40;;;5.43;;
63276;SDS011;49403;51.046;13.780;2022-08-05T03:12:28;9.23;;;5.50;;
63276;SDS011;49403;51.046;13.780;2022-08-05T03:13:00;7.43;;;5.47;;
63276;SDS011;49403;51.046;13.780;2022-08-05T03:13:31;7.93;;;5.28;;
63276;SDS011;49403;51.046;13.780;2022-08-05T03:14:02;8.65;;;5.43;;
63276;SDS011;49403;51.046;13.780;2022-08-05T03:14:33;9.48;;;5.25;;
63276;SDS011;49403;51.046;13.780;2022-08-05T03:15:04;9.30;;;5.40;;
63276;SDS011;49403;51.046;13.780;2022-08-05T03:15:37;10.95;;;5.57;;
63276;SDS011;49403;51.046;13.780;2022-08-05T03:16:11;8.00;;;5.45;;
63276;SDS011;49403;51.046;13.780;2022-08-05T03:16:42;7.55;;;5.30;;
63276;SDS011;49403;51.046;13.780;2022-08-05T03:17:13;12.88;;;5.47;;
63276;SDS011;49403;51.046;13.780;2022-08-05T03:17:44;6.18;;;5.20;;
63276;SDS011;49403;51.046;13.780;2022-08-05T03:18:14;6.20;;;5.60;;
63276;SDS011;49403;51.046;13.780;2022-08-05T03:18:45;6.57;;;5.43;;
63276;SDS011;49403;51.046;13.780;2022-08-05T03:19:16;7.72;;;5.72;;
63276;SDS011;49403;51.046;13.780;2022-08-05T03:19:47;6.35;;;5.20;;
63276;SDS011;49403;51.046;13.780;2022-08-05T03:20:18;12.93;;;5.70;;
63276;SDS011;49403;51.046;13.780;2022-08-05T03:20:49;8.73;;;5.70;;
63276;SDS011;49403;51.046;13.780;2022-08-05T03:21:20;12.20;;;5.53;;
63276;SDS011;49403;51.046;13.780;2022-08-05T03:21:50;6.78;;;5.53;;
63276;SDS011;49403;51.046;13.780;2022-08-05T03:22:21;9.40;;;5.50;;
63276;SDS011;49403;51.046;13.780;2022-08-05T03:22:52;16.23;;;5.18;;
63276;SDS011;49403;51.046;13.780;2022-08-05T03:23:24;9.80;;;5.55;;
63276;SDS011;49403;51.046;13.780;2022-08-05T03:23:55;8.70;;;5.88;;
63276;SDS011;49403;51.046;13.780;2022-08-05T03:24:27;13.48;;;5.65;;
63276;SDS011;49403;51.046;13.780;2022-08-05T03:24:58;9.85;;;5.45;;
63276;SDS011;49403;51.046;13.780;2022-08-05T03:25:30;11.75;;;5.47;;
63276;SDS011;49403;51.046;13.780;2022-08-05T03:26:01;7.15;;;5.35;;